Time;durP1;ratioP1;P1;durP2;ratioP2;P2;SDS_P1;SDS_P2;PMS_P1;PMS_P2;Temp;Humidity;BMP_temperature;BMP_pressure;BME280_temperature;BME280_humidity;BME280_pressure;Samples;Min_cycle;Max_cycle;Signal;HPM_P1;HPM_P2
2023/03/31 00:00:24;;;;;;;95.15;53.17;;;;;;;;;;5034681;28;20211;-58
2023/03/31 00:03:10;;;;;;;33.45;20.88;;;;;;;;;;5034691;28;20209;-58
2023/03/31 00:05:38;;;;;;;37.92;21.63;;;;;;;;;;5034727;28;20267;-57
2023/03/31 00:08:06;;;;;;;41.38;22.15;;;;;;;;;;5034800;28;20251;-58
2023/03/31 00:10:33;;;;;;;36.47;20.23;;;;;;;;;;5034232;28;20201;-57
2023/03/31 00:13:01;;;;;;;33.97;19.92;;;;;;;;;;5033966;28;20211;-57
2023/03/31 00:15:28;;;;;;;34.55;19.85;;;;;;;;;;5034343;28;20205;-57
2023/03/31 00:17:59;;;;;;;36.80;19.88;;;;;;;;;;5034158;28;20236;-58
2023/03/31 00:20:27;;;;;;;58.50;29.52;;;;;;;;;;5034766;28;20251;-57
2023/03/31 00:22:56;;;;;;;36.47;20.70;;;;;;;;;;5034250;28;20220;-57
2023/03/31 00:25:24;;;;;;;34.88;20.88;;;;;;;;;;5034147;28;20212;-57
2023/03/31 00:27:51;;;;;;;35.28;19.90;;;;;;;;;;5033917;28;20723;-58
2023/03/31 00:30:19;;;;;;;37.78;20.08;;;;;;;;;;5016617;28;20208;-58
2023/03/31 00:32:46;;;;;;;35.33;21.13;;;;;;;;;;5032820;28;20203;-57
2023/03/31 00:35:14;;;;;;;29.15;19.55;;;;;;;;;;5033216;28;20735;-57
2023/03/31 00:37:42;;;;;;;32.35;19.55;;;;;;;;;;5016370;28;20211;-56
2023/03/31 00:40:10;;;;;;;56.28;32.40;;;;;;;;;;5033742;28;20212;-57
2023/03/31 00:42:42;;;;;;;43.53;23.85;;;;;;;;;;5016062;28;20689;-57
2023/03/31 00:45:13;;;;;;;34.15;19.98;;;;;;;;;;5033725;28;20197;-57
2023/03/31 00:48:09;;;;;;;39.78;22.15;;;;;;;;;;5034086;28;20287;-58
2023/03/31 00:50:46;;;;;;;32.63;20.38;;;;;;;;;;5016984;28;20197;-57
2023/03/31 00:53:15;;;;;;;36.85;20.38;;;;;;;;;;5033666;28;20204;-56
2023/03/31 00:55:46;;;;;;;35.53;21.20;;;;;;;;;;5033735;28;20208;-58
2023/03/31 00:58:18;;;;;;;37.05;20.52;;;;;;;;;;5016453;28;20200;-57
2023/03/31 01:00:47;;;;;;;40.25;24.45;;;;;;;;;;5016729;28;20677;-57
2023/03/31 01:03:15;;;;;;;42.80;23.85;;;;;;;;;;5016054;28;20221;-57
2023/03/31 01:05:49;;;;;;;32.38;21.17;;;;;;;;;;5033363;28;20208;-57
2023/03/31 01:08:18;;;;;;;41.80;21.70;;;;;;;;;;5015866;28;20207;-58
2023/03/31 01:10:53;;;;;;;34.90;21.85;;;;;;;;;;5016341;28;20200;-57
2023/03/31 01:13:20;;;;;;;35.13;21.52;;;;;;;;;;5016345;28;20574;-58
2023/03/31 01:15:48;;;;;;;34.17;21.77;;;;;;;;;;5016000;28;20237;-58
2023/03/31 01:18:20;;;;;;;34.83;21.88;;;;;;;;;;5012425;28;20237;-58
2023/03/31 01:21:29;;;;;;;62.13;35.05;;;;;;;;;;5012675;28;20220;-58
2023/03/31 01:24:38;;;;;;;39.28;21.90;;;;;;;;;;5028009;28;20232;-57
2023/03/31 01:27:25;;;;;;;39.15;23.02;;;;;;;;;;4946401;28;20219;-57
2023/03/31 01:30:30;;;;;;;32.80;21.75;;;;;;;;;;5013566;28;20558;-57
2023/03/31 01:33:33;;;;;;;33.90;21.83;;;;;;;;;;5013216;28;20209;-58
2023/03/31 01:36:13;;;;;;;32.60;21.73;;;;;;;;;;5009734;28;20662;-57
2023/03/31 01:38:52;;;;;;;32.20;21.90;;;;;;;;;;5013491;28;20205;-56
2023/03/31 01:41:32;;;;;;;48.20;27.90;;;;;;;;;;5013463;28;20200;-57
2023/03/31 01:44:39;;;;;;;43.15;24.98;;;;;;;;;;5012385;28;20232;-57
2023/03/31 01:47:27;;;;;;;72.97;38.60;;;;;;;;;;4978255;28;20597;-58
2023/03/31 01:50:04;;;;;;;43.20;26.25;;;;;;;;;;5016283;28;20209;-56
2023/03/31 01:52:42;;;;;;;40.28;25.48;;;;;;;;;;5016050;28;20212;-57
2023/03/31 01:55:19;;;;;;;42.45;25.38;;;;;;;;;;5016058;28;20222;-56
2023/03/31 01:58:10;;;;;;;38.42;24.88;;;;;;;;;;5016053;28;20643;-58
2023/03/31 02:00:41;;;;;;;38.92;25.42;;;;;;;;;;5017206;28;20619;-59
2023/03/31 02:03:15;;;;;;;40.33;26.48;;;;;;;;;;5016092;28;20217;-57
2023/03/31 02:05:48;;;;;;;39.40;26.30;;;;;;;;;;5015836;28;20216;-58
2023/03/31 02:08:21;;;;;;;106.82;57.28;;;;;;;;;;5015822;28;20627;-58
2023/03/31 02:10:49;;;;;;;38.55;25.75;;;;;;;;;;5016057;28;20205;-57
2023/03/31 02:13:18;;;;;;;43.85;28.00;;;;;;;;;;5032143;28;20209;-58
2023/03/31 02:15:50;;;;;;;45.65;28.10;;;;;;;;;;5032122;28;20201;-57
2023/03/31 02:18:21;;;;;;;44.10;30.10;;;;;;;;;;5036277;28;20228;-58
2023/03/31 02:20:49;;;;;;;45.40;30.17;;;;;;;;;;5019173;28;20209;-58
2023/03/31 02:23:19;;;;;;;46.83;32.45;;;;;;;;;;5036189;28;20731;-57
2023/03/31 02:25:52;;;;;;;48.95;31.58;;;;;;;;;;5018983;28;20598;-58
2023/03/31 02:28:22;;;;;;;54.78;37.22;;;;;;;;;;5018997;28;20204;-58
2023/03/31 02:31:12;;;;;;;51.65;35.42;;;;;;;;;;5002848;28;20208;-56
2023/03/31 02:33:40;;;;;;;58.40;36.97;;;;;;;;;;5019044;28;20205;-58
2023/03/31 02:36:07;;;;;;;56.60;37.22;;;;;;;;;;5019008;28;20205;-58
2023/03/31 02:38:39;;;;;;;54.00;37.03;;;;;;;;;;5036039;28;20201;-58
2023/03/31 02:41:07;;;;;;;52.85;37.97;;;;;;;;;;5002697;28;20188;-58
2023/03/31 02:43:34;;;;;;;59.83;39.35;;;;;;;;;;5018352;28;20228;-59
2023/03/31 02:46:01;;;;;;;59.45;39.40;;;;;;;;;;5036053;28;20205;-58
2023/03/31 02:48:36;;;;;;;78.32;48.58;;;;;;;;;;5018586;28;20197;-58
2023/03/31 02:51:07;;;;;;;63.63;41.00;;;;;;;;;;5034746;28;20209;-58
2023/03/31 02:53:45;;;;;;;65.18;41.80;;;;;;;;;;5018389;28;20266;-58
2023/03/31 02:56:43;;;;;;;59.72;40.47;;;;;;;;;;5035025;28;20227;-58
2023/03/31 02:59:31;;;;;;;64.30;40.17;;;;;;;;;;5018041;28;20219;-58
2023/03/31 03:01:59;;;;;;;54.92;38.47;;;;;;;;;;5017959;28;20562;-57
2023/03/31 03:05:04;;;;;;;55.85;39.05;;;;;;;;;;5017721;28;20224;-58
2023/03/31 03:07:38;;;;;;;61.70;38.50;;;;;;;;;;5018134;28;20211;-58
2023/03/31 03:10:19;;;;;;;62.85;41.00;;;;;;;;;;5018195;28;20547;-58
2023/03/31 03:12:57;;;;;;;62.42;39.78;;;;;;;;;;5001688;28;20219;-59
2023/03/31 03:15:43;;;;;;;73.55;43.33;;;;;;;;;;5018401;28;20184;-57
2023/03/31 03:18:11;;;;;;;61.83;41.70;;;;;;;;;;5018014;28;20240;-56
2023/03/31 03:20:41;;;;;;;66.18;42.45;;;;;;;;;;5017980;28;20247;-58
2023/03/31 03:23:09;;;;;;;69.68;43.45;;;;;;;;;;5035176;28;20546;-58
2023/03/31 03:25:36;;;;;;;62.30;41.50;;;;;;;;;;5035436;28;20945;-58
2023/03/31 03:28:03;;;;;;;149.50;76.30;;;;;;;;;;5030384;28;20208;-58
2023/03/31 03:30:30;;;;;;;66.15;44.95;;;;;;;;;;5021139;28;20197;-58
2023/03/31 03:32:58;;;;;;;66.10;43.72;;;;;;;;;;5034300;28;20205;-59
2023/03/31 03:35:25;;;;;;;88.88;48.05;;;;;;;;;;5034349;28;20197;-58
2023/03/31 03:37:52;;;;;;;74.07;46.38;;;;;;;;;;5033439;28;20556;-59
2023/03/31 03:40:19;;;;;;;69.40;45.65;;;;;;;;;;5033722;28;20207;-58
2023/03/31 03:42:47;;;;;;;71.07;46.25;;;;;;;;;;5033497;28;20208;-58
2023/03/31 03:45:14;;;;;;;76.50;47.28;;;;;;;;;;5034104;28;20221;-58
2023/03/31 03:47:41;;;;;;;121.93;63.47;;;;;;;;;;5031829;28;20224;-57
2023/03/31 03:50:09;;;;;;;83.32;49.35;;;;;;;;;;5030557;28;20196;-60
2023/03/31 03:52:36;;;;;;;72.18;46.08;;;;;;;;;;5029333;28;20570;-59
2023/03/31 03:55:04;;;;;;;81.53;47.85;;;;;;;;;;5030752;28;20196;-58
2023/03/31 03:57:31;;;;;;;77.93;49.38;;;;;;;;;;5029235;28;20205;-57
2023/03/31 03:59:58;;;;;;;79.18;47.42;;;;;;;;;;5032574;28;20201;-59
2023/03/31 04:02:27;;;;;;;75.55;46.45;;;;;;;;;;5032224;28;20213;-58
2023/03/31 04:04:54;;;;;;;73.63;44.50;;;;;;;;;;5029481;28;20711;-58
2023/03/31 04:07:22;;;;;;;115.72;60.92;;;;;;;;;;5032398;28;20833;-58
2023/03/31 04:09:49;;;;;;;208.43;100.72;;;;;;;;;;5028302;28;20232;-57
2023/03/31 04:12:16;;;;;;;110.05;71.90;;;;;;;;;;5032329;28;20224;-59
2023/03/31 04:14:43;;;;;;;80.22;49.22;;;;;;;;;;5019474;28;20244;-59
2023/03/31 04:17:14;;;;;;;72.82;46.75;;;;;;;;;;5031579;28;20232;-59
2023/03/31 04:19:41;;;;;;;75.15;45.42;;;;;;;;;;5030943;28;20216;-58
2023/03/31 04:22:10;;;;;;;70.07;46.55;;;;;;;;;;5032027;28;20255;-57
2023/03/31 04:24:37;;;;;;;72.00;45.90;;;;;;;;;;5028221;28;20240;-59
2023/03/31 04:27:06;;;;;;;78.60;47.45;;;;;;;;;;5012608;28;20233;-59
2023/03/31 04:29:36;;;;;;;74.75;47.50;;;;;;;;;;5012256;28;20225;-57
2023/03/31 04:32:03;;;;;;;123.63;68.78;;;;;;;;;;5012485;28;20221;-59
2023/03/31 04:34:33;;;;;;;75.80;49.10;;;;;;;;;;5012094;28;20636;-59
2023/03/31 04:37:02;;;;;;;69.25;45.45;;;;;;;;;;5025247;28;20312;-57
2023/03/31 04:39:33;;;;;;;69.53;45.63;;;;;;;;;;5029182;28;20213;-60
2023/03/31 04:42:00;;;;;;;76.30;46.45;;;;;;;;;;5029359;28;20275;-58
2023/03/31 04:44:28;;;;;;;74.85;48.03;;;;;;;;;;5030191;28;20326;-58
2023/03/31 04:46:55;;;;;;;73.15;47.92;;;;;;;;;;5028997;28;20217;-57
2023/03/31 04:49:22;;;;;;;71.53;47.17;;;;;;;;;;5030458;28;20657;-57
2023/03/31 04:51:49;;;;;;;91.18;55.75;;;;;;;;;;5029585;28;20225;-58
2023/03/31 04:54:17;;;;;;;78.25;49.25;;;;;;;;;;5029484;28;20319;-59
2023/03/31 04:56:45;;;;;;;71.07;45.92;;;;;;;;;;5029498;28;20837;-59
2023/03/31 04:59:12;;;;;;;68.30;43.60;;;;;;;;;;5029561;28;20225;-57
2023/03/31 05:01:43;;;;;;;64.25;41.33;;;;;;;;;;5030056;28;20243;-57
2023/03/31 05:04:11;;;;;;;62.47;40.15;;;;;;;;;;5032530;28;20224;-58
2023/03/31 05:06:38;;;;;;;64.80;41.38;;;;;;;;;;5032161;28;20209;-60
2023/03/31 05:09:06;;;;;;;59.90;37.60;;;;;;;;;;5030877;28;20231;-56
2023/03/31 05:11:33;;;;;;;65.60;41.00;;;;;;;;;;5032284;28;20201;-56
2023/03/31 05:14:00;;;;;;;60.63;39.05;;;;;;;;;;5032243;28;20217;-58
2023/03/31 05:16:27;;;;;;;48.45;34.70;;;;;;;;;;5014687;28;20743;-58
2023/03/31 05:18:54;;;;;;;51.22;33.85;;;;;;;;;;5015132;28;20191;-57
2023/03/31 05:21:22;;;;;;;49.03;33.88;;;;;;;;;;5031764;28;20200;-59
2023/03/31 05:23:49;;;;;;;50.72;33.25;;;;;;;;;;5032109;28;20235;-58
2023/03/31 05:26:17;;;;;;;91.57;54.50;;;;;;;;;;5032129;28;20643;-59
2023/03/31 05:28:44;;;;;;;88.25;55.38;;;;;;;;;;5032507;28;20211;-59
2023/03/31 05:31:13;;;;;;;48.65;32.25;;;;;;;;;;5032280;28;20209;-57
2023/03/31 05:33:40;;;;;;;43.55;29.40;;;;;;;;;;5032336;28;20209;-55
2023/03/31 05:36:12;;;;;;;46.72;30.50;;;;;;;;;;5032591;28;20209;-57
2023/03/31 05:38:40;;;;;;;43.47;29.23;;;;;;;;;;5032171;28;20205;-57
2023/03/31 05:41:08;;;;;;;48.42;31.33;;;;;;;;;;5031969;28;20585;-57
2023/03/31 05:43:36;;;;;;;46.83;29.23;;;;;;;;;;5032048;28;20615;-58
2023/03/31 05:46:05;;;;;;;42.70;28.70;;;;;;;;;;5032408;28;20204;-57
2023/03/31 05:48:33;;;;;;;43.58;29.83;;;;;;;;;;5032279;28;20204;-58
2023/03/31 05:51:00;;;;;;;42.25;28.88;;;;;;;;;;5031988;28;20573;-58
2023/03/31 05:53:28;;;;;;;37.92;27.02;;;;;;;;;;5031940;28;20682;-58
2023/03/31 05:55:57;;;;;;;40.92;28.33;;;;;;;;;;5032016;28;20255;-58
2023/03/31 05:58:25;;;;;;;38.00;27.58;;;;;;;;;;5032034;28;20777;-57
2023/03/31 06:01:07;;;;;;;41.47;28.15;;;;;;;;;;5031986;28;20212;-57
2023/03/31 06:03:37;;;;;;;39.22;26.98;;;;;;;;;;5031936;28;20287;-58
2023/03/31 06:06:06;;;;;;;37.97;26.95;;;;;;;;;;5032349;28;20196;-59
2023/03/31 06:08:34;;;;;;;33.80;25.55;;;;;;;;;;5031861;28;20722;-58
2023/03/31 06:11:10;;;;;;;41.00;27.77;;;;;;;;;;5031847;28;20693;-57
2023/03/31 06:13:38;;;;;;;38.83;26.48;;;;;;;;;;5031910;28;20204;-58
2023/03/31 06:16:06;;;;;;;38.03;27.42;;;;;;;;;;5031698;28;20216;-59
2023/03/31 06:18:35;;;;;;;40.33;26.95;;;;;;;;;;5031705;28;20263;-57
2023/03/31 06:21:02;;;;;;;35.50;25.58;;;;;;;;;;5032097;28;20205;-57
2023/03/31 06:23:30;;;;;;;31.30;23.80;;;;;;;;;;5031723;28;20608;-57
2023/03/31 06:26:03;;;;;;;36.35;24.27;;;;;;;;;;5031466;28;20294;-58
2023/03/31 06:28:30;;;;;;;31.80;22.85;;;;;;;;;;5032033;28;20224;-57
2023/03/31 06:31:01;;;;;;;31.65;22.42;;;;;;;;;;5032255;28;20305;-57
2023/03/31 06:33:29;;;;;;;34.53;23.33;;;;;;;;;;5034878;28;20216;-58
2023/03/31 06:35:58;;;;;;;32.65;23.05;;;;;;;;;;5035336;28;20201;-57
2023/03/31 06:38:26;;;;;;;28.50;20.95;;;;;;;;;;5035492;28;20201;-58
2023/03/31 06:40:53;;;;;;;37.15;22.00;;;;;;;;;;5035134;28;20208;-59
2023/03/31 06:43:20;;;;;;;28.58;19.85;;;;;;;;;;5035052;28;20204;-58
2023/03/31 06:45:48;;;;;;;29.02;20.85;;;;;;;;;;5034879;28;20745;-57
2023/03/31 06:48:19;;;;;;;29.67;20.27;;;;;;;;;;5035510;28;20205;-58
2023/03/31 06:50:46;;;;;;;40.05;25.65;;;;;;;;;;5034903;28;20205;-58
2023/03/31 06:53:13;;;;;;;27.75;18.95;;;;;;;;;;5035024;28;20207;-57
2023/03/31 06:55:41;;;;;;;25.42;19.92;;;;;;;;;;5034800;28;20204;-56
2023/03/31 06:58:08;;;;;;;26.52;18.92;;;;;;;;;;5034665;28;20737;-56
2023/03/31 07:00:35;;;;;;;28.33;19.85;;;;;;;;;;5034753;28;21003;-58
2023/03/31 07:03:03;;;;;;;28.80;18.92;;;;;;;;;;5034805;28;20212;-58
2023/03/31 07:05:30;;;;;;;23.55;17.52;;;;;;;;;;5034548;28;20705;-58
2023/03/31 07:07:58;;;;;;;31.90;20.23;;;;;;;;;;5034597;28;20244;-60
2023/03/31 07:10:28;;;;;;;49.75;27.85;;;;;;;;;;5034362;28;20212;-57
2023/03/31 07:12:56;;;;;;;27.17;19.92;;;;;;;;;;5034748;28;20230;-58
2023/03/31 07:15:24;;;;;;;25.58;18.52;;;;;;;;;;5034416;28;20223;-58
2023/03/31 07:18:01;;;;;;;24.65;17.25;;;;;;;;;;5016748;28;20275;-59
2023/03/31 07:20:29;;;;;;;26.85;18.48;;;;;;;;;;5034743;28;20200;-57
2023/03/31 07:22:56;;;;;;;21.45;17.08;;;;;;;;;;5034605;28;20228;-57
2023/03/31 07:25:24;;;;;;;23.40;16.33;;;;;;;;;;5034144;28;20232;-59
2023/03/31 07:27:51;;;;;;;21.52;15.35;;;;;;;;;;5034224;28;20607;-57
2023/03/31 07:30:19;;;;;;;26.58;16.75;;;;;;;;;;5034317;28;20201;-51
2023/03/31 07:32:49;;;;;;;18.38;11.30;;;;;;;;;;5016516;28;20201;-53
2023/03/31 07:35:17;;;;;;;16.27;11.73;;;;;;;;;;5033507;28;20661;-51
2023/03/31 07:37:46;;;;;;;21.92;13.40;;;;;;;;;;5034013;28;20207;-52
2023/03/31 07:40:20;;;;;;;15.05;11.75;;;;;;;;;;5034160;28;20209;-51
2023/03/31 07:42:47;;;;;;;19.33;10.98;;;;;;;;;;5033653;28;20212;-52
2023/03/31 07:45:16;;;;;;;21.90;12.82;;;;;;;;;;5033964;28;20232;-51
2023/03/31 07:47:45;;;;;;;15.43;10.30;;;;;;;;;;5033941;28;20570;-51
2023/03/31 07:50:14;;;;;;;22.98;13.38;;;;;;;;;;5033836;28;20235;-51
2023/03/31 07:52:41;;;;;;;20.55;14.00;;;;;;;;;;5033891;28;20207;-53
2023/03/31 07:55:12;;;;;;;46.88;29.42;;;;;;;;;;5033297;28;20228;-52
2023/03/31 07:57:40;;;;;;;16.13;10.57;;;;;;;;;;5032599;28;20607;-56
2023/03/31 08:00:11;;;;;;;16.35;11.82;;;;;;;;;;5033458;28;20204;-57
2023/03/31 08:02:40;;;;;;;16.23;11.63;;;;;;;;;;5033620;28;20231;-56
2023/03/31 08:05:10;;;;;;;18.02;11.45;;;;;;;;;;5033696;28;20227;-56
2023/03/31 08:07:39;;;;;;;18.00;9.85;;;;;;;;;;5033641;28;20564;-58
2023/03/31 08:10:08;;;;;;;18.98;10.25;;;;;;;;;;5016160;28;20204;-58
2023/03/31 08:12:35;;;;;;;16.65;11.07;;;;;;;;;;5033330;28;20200;-58
2023/03/31 08:15:04;;;;;;;18.88;11.80;;;;;;;;;;5033332;28;20219;-57
2023/03/31 08:17:31;;;;;;;15.32;11.55;;;;;;;;;;5033382;28;20232;-57
2023/03/31 08:19:58;;;;;;;16.70;10.10;;;;;;;;;;5033232;28;20212;-56
2023/03/31 08:22:32;;;;;;;25.52;9.40;;;;;;;;;;5032246;28;20211;-57
2023/03/31 08:24:59;;;;;;;17.25;8.55;;;;;;;;;;5033298;28;20229;-57
2023/03/31 08:27:26;;;;;;;13.88;8.25;;;;;;;;;;5033060;28;20673;-57
2023/03/31 08:29:53;;;;;;;15.15;8.43;;;;;;;;;;5033373;28;20209;-57
2023/03/31 08:32:23;;;;;;;15.98;9.13;;;;;;;;;;5032954;28;20212;-54
2023/03/31 08:34:50;;;;;;;17.15;9.70;;;;;;;;;;5033132;28;20208;-60
2023/03/31 08:37:17;;;;;;;17.35;8.98;;;;;;;;;;5033205;28;20253;-58
2023/03/31 08:39:45;;;;;;;16.17;8.02;;;;;;;;;;5032643;28;20654;-56
2023/03/31 08:42:13;;;;;;;14.43;8.32;;;;;;;;;;5032767;28;20208;-56
2023/03/31 08:45:03;;;;;;;13.70;7.35;;;;;;;;;;5033060;28;20197;-58
2023/03/31 08:47:31;;;;;;;13.02;6.45;;;;;;;;;;5015376;28;20549;-56
2023/03/31 08:50:06;;;;;;;11.27;6.57;;;;;;;;;;5015464;28;20208;-58
2023/03/31 08:53:00;;;;;;;15.57;7.20;;;;;;;;;;5031900;28;20544;-57
2023/03/31 08:55:35;;;;;;;27.48;15.25;;;;;;;;;;5031928;28;20209;-57
2023/03/31 08:58:04;;;;;;;12.07;6.68;;;;;;;;;;5015393;28;20295;-57
2023/03/31 09:00:39;;;;;;;15.65;7.30;;;;;;;;;;5032590;28;20204;-56
2023/03/31 09:03:28;;;;;;;14.25;7.70;;;;;;;;;;5015289;28;20207;-59
2023/03/31 09:06:01;;;;;;;13.27;6.80;;;;;;;;;;5014697;28;20697;-57
2023/03/31 09:08:36;;;;;;;10.00;5.38;;;;;;;;;;5030754;28;20205;-57
2023/03/31 09:11:39;;;;;;;10.45;5.32;;;;;;;;;;5032484;28;20719;-58
2023/03/31 09:14:31;;;;;;;16.15;6.70;;;;;;;;;;4936443;29;20218;-57
2023/03/31 09:17:14;;;;;;;16.23;9.07;;;;;;;;;;4952073;29;20262;-57
2023/03/31 09:19:47;;;;;;;12.20;7.35;;;;;;;;;;4951599;29;20211;-57
2023/03/31 09:22:19;;;;;;;16.63;8.60;;;;;;;;;;4952235;29;20207;-57
2023/03/31 09:24:55;;;;;;;17.42;8.65;;;;;;;;;;4952210;29;20218;-56
2023/03/31 09:27:25;;;;;;;16.83;8.88;;;;;;;;;;4951717;29;20652;-59
2023/03/31 09:29:52;;;;;;;17.85;9.43;;;;;;;;;;4933095;29;20200;-57
2023/03/31 09:32:22;;;;;;;15.05;8.10;;;;;;;;;;4932995;29;20231;-57
2023/03/31 09:34:56;;;;;;;36.45;14.77;;;;;;;;;;4917396;29;20291;-57
2023/03/31 09:37:26;;;;;;;134.18;74.47;;;;;;;;;;4917329;29;20204;-57
2023/03/31 09:39:53;;;;;;;61.60;36.22;;;;;;;;;;4933036;29;20211;-59
2023/03/31 09:42:20;;;;;;;13.35;9.13;;;;;;;;;;4932713;29;20211;-56
2023/03/31 09:44:51;;;;;;;13.68;9.63;;;;;;;;;;4932743;29;20208;-59
2023/03/31 09:47:24;;;;;;;18.20;10.95;;;;;;;;;;4932914;29;20259;-59
2023/03/31 09:49:51;;;;;;;19.63;10.52;;;;;;;;;;4937312;28;20209;-57
2023/03/31 09:52:29;;;;;;;20.95;10.73;;;;;;;;;;5012573;28;20210;-57
2023/03/31 09:55:20;;;;;;;14.25;9.70;;;;;;;;;;5012338;28;20209;-56
2023/03/31 09:58:07;;;;;;;18.05;11.23;;;;;;;;;;5012436;28;20228;-59
2023/03/31 10:00:35;;;;;;;17.70;11.45;;;;;;;;;;5012181;28;20212;-57
2023/03/31 10:03:06;;;;;;;15.35;10.32;;;;;;;;;;5027257;28;20209;-59
2023/03/31 10:05:36;;;;;;;20.23;9.88;;;;;;;;;;5012174;28;20288;-57
2023/03/31 10:08:10;;;;;;;24.23;10.75;;;;;;;;;;4998718;28;20244;-59
2023/03/31 10:10:37;;;;;;;23.00;11.82;;;;;;;;;;5016335;28;20202;-55
2023/03/31 10:13:09;;;;;;;15.27;8.93;;;;;;;;;;4997741;28;20217;-60
2023/03/31 10:15:37;;;;;;;16.27;8.13;;;;;;;;;;4998916;28;20216;-58
2023/03/31 10:18:13;;;;;;;17.88;9.27;;;;;;;;;;4999067;28;20252;-58
2023/03/31 10:20:49;;;;;;;16.77;9.90;;;;;;;;;;5016020;28;20672;-59
2023/03/31 10:23:26;;;;;;;17.38;8.63;;;;;;;;;;5014777;28;20597;-60
2023/03/31 10:25:53;;;;;;;17.35;8.35;;;;;;;;;;5030802;28;20224;-57
2023/03/31 10:28:21;;;;;;;17.30;8.18;;;;;;;;;;5015457;28;20205;-59
2023/03/31 10:30:54;;;;;;;15.43;8.35;;;;;;;;;;5015772;28;20605;-57
2023/03/31 10:33:24;;;;;;;13.32;7.43;;;;;;;;;;5015710;28;20267;-58
2023/03/31 10:35:56;;;;;;;18.35;8.45;;;;;;;;;;5030900;28;20209;-58
2023/03/31 10:38:36;;;;;;;16.23;9.10;;;;;;;;;;5015739;28;20650;-57
2023/03/31 10:41:03;;;;;;;18.58;9.20;;;;;;;;;;5005984;28;20196;-59
2023/03/31 10:43:41;;;;;;;14.57;8.48;;;;;;;;;;5017460;28;20267;-59
2023/03/31 10:46:08;;;;;;;19.50;10.18;;;;;;;;;;5017097;28;20628;-58
2023/03/31 10:48:39;;;;;;;19.50;9.35;;;;;;;;;;5034200;28;20688;-58
2023/03/31 10:51:18;;;;;;;15.57;7.70;;;;;;;;;;5034968;28;20208;-59
2023/03/31 10:53:48;;;;;;;15.57;7.70;;;;;;;;;;5034855;28;20216;-59
2023/03/31 10:56:21;;;;;;;12.07;7.57;;;;;;;;;;5034812;28;20578;-58
2023/03/31 10:59:09;;;;;;;22.00;13.70;;;;;;;;;;5050225;28;20189;-59
2023/03/31 11:02:33;;;;;;;14.02;8.73;;;;;;;;;;5034710;28;20204;-57
2023/03/31 11:05:21;;;;;;;19.80;8.43;;;;;;;;;;4993072;28;20268;-58
2023/03/31 11:08:04;;;;;;;17.85;8.55;;;;;;;;;;4993178;28;20227;-60
2023/03/31 11:10:47;;;;;;;15.40;7.28;;;;;;;;;;4992998;28;20209;-59
2023/03/31 11:13:39;;;;;;;12.45;6.25;;;;;;;;;;4993044;28;20572;-57
2023/03/31 11:16:34;;;;;;;13.25;5.88;;;;;;;;;;4993083;28;20210;-57
2023/03/31 11:19:04;;;;;;;46.95;25.15;;;;;;;;;;4992251;28;20209;-59
2023/03/31 11:21:50;;;;;;;25.92;10.60;;;;;;;;;;4976968;28;20214;-59
2023/03/31 11:24:22;;;;;;;10.48;5.20;;;;;;;;;;4993030;28;20639;-58
2023/03/31 11:27:09;;;;;;;9.35;3.78;;;;;;;;;;4993711;28;20748;-58
2023/03/31 11:29:39;;;;;;;11.85;5.05;;;;;;;;;;4993874;28;20205;-57
2023/03/31 11:32:39;;;;;;;11.70;4.35;;;;;;;;;;4993950;28;20206;-58
2023/03/31 11:35:37;;;;;;;10.32;5.10;;;;;;;;;;4951404;28;20205;-57
2023/03/31 11:38:14;;;;;;;11.45;5.35;;;;;;;;;;5035125;28;20237;-56
2023/03/31 11:40:57;;;;;;;19.35;8.90;;;;;;;;;;5050392;28;20208;-58
2023/03/31 11:43:40;;;;;;;13.43;6.18;;;;;;;;;;5034842;28;20677;-58
2023/03/31 11:46:08;;;;;;;12.43;5.47;;;;;;;;;;5035009;28;20231;-57
2023/03/31 11:48:44;;;;;;;15.82;7.38;;;;;;;;;;5035049;28;20212;-58
2023/03/31 11:51:30;;;;;;;14.07;6.22;;;;;;;;;;5035127;28;20262;-58
2023/03/31 11:53:59;;;;;;;18.33;8.80;;;;;;;;;;5034202;28;20251;-59
2023/03/31 11:56:32;;;;;;;12.77;6.50;;;;;;;;;;5028645;28;20737;-59
2023/03/31 11:59:01;;;;;;;58.78;27.90;;;;;;;;;;5031850;28;20626;-60
2023/03/31 12:01:39;;;;;;;31.17;14.45;;;;;;;;;;5016348;28;20201;-57
2023/03/31 12:04:09;;;;;;;20.85;8.30;;;;;;;;;;5013255;28;20189;-51
2023/03/31 12:06:41;;;;;;;11.00;5.30;;;;;;;;;;5033382;28;20205;-53
2023/03/31 12:09:30;;;;;;;12.13;5.68;;;;;;;;;;5029910;28;20180;-54
2023/03/31 12:12:19;;;;;;;14.95;7.20;;;;;;;;;;5031271;28;20264;-51
2023/03/31 12:15:10;;;;;;;14.82;7.45;;;;;;;;;;5013404;28;20189;-53
2023/03/31 12:17:40;;;;;;;15.00;8.48;;;;;;;;;;5047196;28;20766;-55
2023/03/31 12:20:24;;;;;;;28.17;15.55;;;;;;;;;;5029352;28;20631;-51
2023/03/31 12:22:53;;;;;;;16.27;9.30;;;;;;;;;;5046954;28;20280;-54
2023/03/31 12:25:27;;;;;;;12.98;6.13;;;;;;;;;;5032878;28;20216;-55
2023/03/31 12:27:55;;;;;;;13.25;5.93;;;;;;;;;;5032412;28;20268;-54
2023/03/31 12:30:36;;;;;;;13.75;5.30;;;;;;;;;;5013682;28;20204;-57
2023/03/31 12:33:09;;;;;;;14.27;4.97;;;;;;;;;;5045786;28;20177;-52
2023/03/31 12:35:50;;;;;;;10.05;4.75;;;;;;;;;;5032516;28;20185;-53
2023/03/31 12:38:53;;;;;;;17.45;7.95;;;;;;;;;;5031617;28;20269;-55
2023/03/31 12:41:50;;;;;;;13.90;6.45;;;;;;;;;;5028009;28;20200;-57
2023/03/31 12:44:37;;;;;;;13.25;6.30;;;;;;;;;;5028697;28;20231;-52
2023/03/31 12:47:17;;;;;;;11.52;4.88;;;;;;;;;;5030999;28;20224;-50
2023/03/31 12:50:12;;;;;;;15.10;5.22;;;;;;;;;;5030419;28;20240;-54
2023/03/31 12:52:51;;;;;;;12.93;5.05;;;;;;;;;;5026564;28;22255;-52
2023/03/31 12:55:21;;;;;;;20.02;6.93;;;;;;;;;;5045850;28;20263;-55
2023/03/31 12:57:49;;;;;;;30.55;11.27;;;;;;;;;;5032421;28;20220;-51
2023/03/31 13:00:23;;;;;;;29.67;12.60;;;;;;;;;;5032168;28;20221;-53
2023/03/31 13:03:29;;;;;;;17.40;6.68;;;;;;;;;;5014720;28;20693;-52
2023/03/31 13:05:56;;;;;;;12.43;4.90;;;;;;;;;;5032084;28;20315;-52
2023/03/31 13:08:48;;;;;;;12.52;4.80;;;;;;;;;;5030982;28;20236;-55
2023/03/31 13:11:17;;;;;;;12.88;5.32;;;;;;;;;;5032777;28;20224;-56
2023/03/31 13:13:58;;;;;;;14.82;4.15;;;;;;;;;;5031115;28;20224;-54
2023/03/31 13:16:28;;;;;;;12.38;3.92;;;;;;;;;;5032070;28;20709;-55
2023/03/31 13:18:56;;;;;;;31.45;13.57;;;;;;;;;;5029797;28;20220;-55
2023/03/31 13:21:23;;;;;;;13.27;5.95;;;;;;;;;;5031020;28;20312;-51
2023/03/31 13:23:52;;;;;;;10.52;3.63;;;;;;;;;;5010151;28;20233;-55
2023/03/31 13:26:31;;;;;;;9.35;3.03;;;;;;;;;;5013674;28;20224;-52
2023/03/31 13:29:14;;;;;;;7.85;3.17;;;;;;;;;;5029848;28;20243;-53
2023/03/31 13:32:25;;;;;;;11.05;3.92;;;;;;;;;;5030240;28;20621;-55
2023/03/31 13:35:03;;;;;;;10.27;3.75;;;;;;;;;;5029995;28;20627;-52
2023/03/31 13:37:43;;;;;;;13.77;5.00;;;;;;;;;;5010615;28;20304;-51
2023/03/31 13:40:23;;;;;;;32.58;13.77;;;;;;;;;;5028281;28;20231;-58
2023/03/31 13:42:59;;;;;;;11.93;6.10;;;;;;;;;;5034306;28;20216;-55
2023/03/31 13:45:54;;;;;;;13.23;4.00;;;;;;;;;;5036107;28;20228;-54
2023/03/31 13:48:38;;;;;;;14.63;5.38;;;;;;;;;;5036144;28;20251;-54
2023/03/31 13:51:14;;;;;;;14.13;4.28;;;;;;;;;;5017343;28;20221;-57
2023/03/31 13:54:18;;;;;;;11.18;3.13;;;;;;;;;;5032744;28;20224;-52
2023/03/31 13:57:23;;;;;;;16.15;4.47;;;;;;;;;;5017362;28;20224;-56
2023/03/31 14:00:18;;;;;;;44.63;20.90;;;;;;;;;;5034909;28;20216;-54
2023/03/31 14:03:00;;;;;;;10.75;4.78;;;;;;;;;;5032798;28;20220;-57
2023/03/31 14:05:42;;;;;;;16.40;5.40;;;;;;;;;;5035685;28;20717;-58
2023/03/31 14:08:13;;;;;;;15.48;4.57;;;;;;;;;;5018312;28;20243;-56
2023/03/31 14:10:41;;;;;;;14.25;4.60;;;;;;;;;;5018246;28;20228;-57
2023/03/31 14:13:17;;;;;;;11.77;4.10;;;;;;;;;;5035839;28;20721;-51
2023/03/31 14:15:53;;;;;;;15.15;4.45;;;;;;;;;;5035744;28;20250;-50
2023/03/31 14:18:27;;;;;;;36.28;12.40;;;;;;;;;;5035665;28;20244;-52
2023/03/31 14:21:10;;;;;;;37.40;13.85;;;;;;;;;;5035524;28;20563;-51
2023/03/31 14:23:37;;;;;;;17.85;6.30;;;;;;;;;;5033156;28;20216;-51
2023/03/31 14:26:16;;;;;;;25.27;6.22;;;;;;;;;;5034719;28;20244;-56
2023/03/31 14:29:11;;;;;;;22.90;6.35;;;;;;;;;;5033486;28;20224;-53
2023/03/31 14:32:15;;;;;;;20.85;6.57;;;;;;;;;;5043045;28;20681;-53
2023/03/31 14:35:18;;;;;;;14.90;5.20;;;;;;;;;;5030423;28;20224;-51
2023/03/31 14:37:47;;;;;;;13.73;5.10;;;;;;;;;;5032186;28;20232;-57
2023/03/31 14:40:16;;;;;;;35.00;15.30;;;;;;;;;;5033421;28;20637;-59
2023/03/31 14:42:48;;;;;;;28.80;11.38;;;;;;;;;;5033933;28;20251;-55
2023/03/31 14:45:30;;;;;;;19.08;6.63;;;;;;;;;;5029737;28;20628;-56
2023/03/31 14:48:03;;;;;;;15.57;6.97;;;;;;;;;;5031554;28;20232;-51
2023/03/31 14:50:34;;;;;;;13.63;5.88;;;;;;;;;;5032529;28;20220;-52
2023/03/31 14:53:03;;;;;;;15.20;6.68;;;;;;;;;;5030773;28;20717;-55
2023/03/31 14:55:32;;;;;;;19.05;6.63;;;;;;;;;;5029970;28;20228;-51
2023/03/31 14:58:29;;;;;;;9.32;4.95;;;;;;;;;;5017174;28;20235;-50
2023/03/31 15:00:57;;;;;;;14.98;9.07;;;;;;;;;;5008861;28;20247;-56